Time;durP1;ratioP1;P1;durP2;ratioP2;P2;SDS_P1;SDS_P2;PMS_P1;PMS_P2;Temp;Humidity;BMP_temperature;BMP_pressure;BME280_temperature;BME280_humidity;BME280_pressure;Samples;Min_cycle;Max_cycle;Signal;HPM_P1;HPM_P2
2023/10/27 00:01:15;;;;;;;39.80;19.73;;;;;;;;;;5057261;28;20009;-71
2023/10/27 00:03:40;;;;;;;44.53;20.02;;;;;;;;;;5072863;28;20251;-71
2023/10/27 00:06:06;;;;;;;41.87;20.97;;;;;;;;;;5073513;28;20036;-71
2023/10/27 00:08:31;;;;;;;45.47;20.52;;;;;;;;;;5074947;28;20271;-71
2023/10/27 00:10:56;;;;;;;44.37;19.63;;;;;;;;;;5075259;28;20040;-71
2023/10/27 00:13:21;;;;;;;41.17;20.00;;;;;;;;;;5075733;28;20291;-70
2023/10/27 00:15:47;;;;;;;43.45;21.23;;;;;;;;;;5076691;28;20287;-71
2023/10/27 00:18:12;;;;;;;41.97;19.75;;;;;;;;;;5076347;28;20017;-72
2023/10/27 00:20:37;;;;;;;44.67;21.15;;;;;;;;;;5077354;28;20029;-71
2023/10/27 00:23:02;;;;;;;48.58;20.50;;;;;;;;;;5060792;28;20005;-71
2023/10/27 00:25:28;;;;;;;42.10;19.83;;;;;;;;;;5077960;28;20017;-71
2023/10/27 00:27:53;;;;;;;44.20;20.50;;;;;;;;;;5078434;28;20262;-71
2023/10/27 00:30:18;;;;;;;45.73;21.03;;;;;;;;;;5078480;28;20256;-71
2023/10/27 00:32:43;;;;;;;43.73;20.40;;;;;;;;;;5077790;28;20005;-71
2023/10/27 00:35:09;;;;;;;46.20;21.58;;;;;;;;;;5077909;28;20259;-71
2023/10/27 00:37:35;;;;;;;40.45;20.20;;;;;;;;;;5078007;28;20021;-71
2023/10/27 00:40:00;;;;;;;44.92;19.52;;;;;;;;;;5060525;28;20073;-71
2023/10/27 00:42:26;;;;;;;45.75;21.83;;;;;;;;;;5058117;28;20021;-71
2023/10/27 00:44:51;;;;;;;43.90;20.52;;;;;;;;;;5060059;28;20057;-72
2023/10/27 00:47:16;;;;;;;45.97;20.43;;;;;;;;;;5057653;28;20052;-72
2023/10/27 00:49:42;;;;;;;43.20;20.08;;;;;;;;;;5057047;28;20605;-72
2023/10/27 00:52:07;;;;;;;42.42;20.20;;;;;;;;;;5057306;28;20021;-71
2023/10/27 00:54:33;;;;;;;41.90;19.98;;;;;;;;;;5056091;28;20029;-72
2023/10/27 00:56:58;;;;;;;43.10;20.23;;;;;;;;;;5056044;28;20021;-72
2023/10/27 00:59:24;;;;;;;43.22;20.02;;;;;;;;;;5037563;28;20005;-71
2023/10/27 01:01:50;;;;;;;46.85;20.88;;;;;;;;;;5054496;28;20043;-72
2023/10/27 01:04:15;;;;;;;45.40;20.48;;;;;;;;;;5054538;28;20059;-71
2023/10/27 01:06:40;;;;;;;41.10;19.83;;;;;;;;;;5054398;28;20063;-71
2023/10/27 01:09:05;;;;;;;44.00;19.90;;;;;;;;;;5053535;28;20762;-71
2023/10/27 01:11:31;;;;;;;48.40;21.10;;;;;;;;;;5053651;28;20476;-72
2023/10/27 01:13:56;;;;;;;44.88;20.73;;;;;;;;;;5053288;28;20078;-71
2023/10/27 01:16:21;;;;;;;41.93;19.63;;;;;;;;;;5053428;28;20039;-72
2023/10/27 01:18:46;;;;;;;43.40;20.48;;;;;;;;;;5053093;28;20251;-72
2023/10/27 01:21:12;;;;;;;45.80;20.43;;;;;;;;;;5053259;28;20025;-71
2023/10/27 01:23:37;;;;;;;52.53;21.37;;;;;;;;;;5052840;28;20025;-72
2023/10/27 01:26:03;;;;;;;49.30;20.87;;;;;;;;;;5053000;28;20363;-71
2023/10/27 01:28:28;;;;;;;48.22;20.73;;;;;;;;;;5052064;28;20757;-72
2023/10/27 01:30:54;;;;;;;48.25;20.65;;;;;;;;;;5034120;28;20025;-71
2023/10/27 01:33:21;;;;;;;50.92;21.30;;;;;;;;;;5051754;28;20024;-71
2023/10/27 01:35:46;;;;;;;46.75;20.60;;;;;;;;;;5052450;28;20496;-71
2023/10/27 01:38:12;;;;;;;47.00;21.92;;;;;;;;;;5055572;28;20108;-71
2023/10/27 01:40:37;;;;;;;48.97;20.97;;;;;;;;;;5055565;28;20028;-71
2023/10/27 01:43:02;;;;;;;52.80;21.07;;;;;;;;;;5056073;28;20391;-71
2023/10/27 01:45:27;;;;;;;47.90;21.80;;;;;;;;;;5056292;28;20036;-71
2023/10/27 01:47:52;;;;;;;48.00;21.33;;;;;;;;;;5038370;28;20017;-71
2023/10/27 01:50:18;;;;;;;46.72;21.73;;;;;;;;;;5056134;28;20267;-71
2023/10/27 01:52:43;;;;;;;50.77;22.33;;;;;;;;;;5055387;28;20028;-71
2023/10/27 01:55:08;;;;;;;46.07;21.27;;;;;;;;;;5055406;28;20259;-71
2023/10/27 01:57:33;;;;;;;51.43;22.27;;;;;;;;;;5038341;28;20346;-71
2023/10/27 01:59:58;;;;;;;49.33;21.70;;;;;;;;;;5038026;28;20287;-71
2023/10/27 02:02:23;;;;;;;48.27;21.10;;;;;;;;;;5055851;28;20021;-71
2023/10/27 02:04:49;;;;;;;51.73;22.17;;;;;;;;;;5037956;28;20325;-71
2023/10/27 02:07:15;;;;;;;47.00;20.73;;;;;;;;;;5055736;28;20264;-71
2023/10/27 02:09:40;;;;;;;50.40;21.27;;;;;;;;;;5055772;28;20041;-71
2023/10/27 02:12:07;;;;;;;48.13;21.67;;;;;;;;;;5055600;28;20064;-71
2023/10/27 02:14:33;;;;;;;50.35;22.10;;;;;;;;;;5037734;28;20382;-71
2023/10/27 02:16:58;;;;;;;46.67;21.55;;;;;;;;;;5055581;28;20136;-71
2023/10/27 02:19:23;;;;;;;49.97;22.00;;;;;;;;;;5055731;28;20456;-71
2023/10/27 02:21:48;;;;;;;55.07;22.30;;;;;;;;;;5055644;28;20267;-71
2023/10/27 02:24:13;;;;;;;58.67;22.90;;;;;;;;;;5055563;28;20746;-71
2023/10/27 02:26:39;;;;;;;51.95;22.90;;;;;;;;;;5037611;28;20013;-71
2023/10/27 02:29:04;;;;;;;51.83;23.60;;;;;;;;;;5055497;28;20025;-70
2023/10/27 02:31:29;;;;;;;53.23;22.63;;;;;;;;;;5055431;28;20290;-70
2023/10/27 02:33:54;;;;;;;54.15;22.50;;;;;;;;;;5055344;28;20028;-71
2023/10/27 02:36:19;;;;;;;51.75;22.52;;;;;;;;;;5055333;28;20089;-71
2023/10/27 02:38:45;;;;;;;50.30;22.95;;;;;;;;;;5037392;28;20013;-71
2023/10/27 02:41:10;;;;;;;56.13;24.00;;;;;;;;;;5055368;28;20017;-71
2023/10/27 02:43:37;;;;;;;49.17;22.83;;;;;;;;;;5055064;28;20293;-71
2023/10/27 02:46:02;;;;;;;50.22;23.13;;;;;;;;;;5055186;28;20176;-71
2023/10/27 02:48:28;;;;;;;55.72;22.50;;;;;;;;;;5037249;28;20059;-71
2023/10/27 02:50:53;;;;;;;58.13;23.52;;;;;;;;;;5054992;28;20025;-71
2023/10/27 02:53:18;;;;;;;52.40;22.50;;;;;;;;;;5055348;28;20086;-71
2023/10/27 02:55:44;;;;;;;51.10;22.90;;;;;;;;;;5054906;28;20020;-71
2023/10/27 02:58:09;;;;;;;49.33;21.27;;;;;;;;;;5055121;28;20062;-71
2023/10/27 03:00:34;;;;;;;55.03;23.13;;;;;;;;;;5054891;28;20452;-72
2023/10/27 03:03:00;;;;;;;51.20;22.05;;;;;;;;;;5054913;28;20021;-72
2023/10/27 03:05:25;;;;;;;49.97;22.17;;;;;;;;;;5054743;28;20453;-72
2023/10/27 03:07:50;;;;;;;53.47;22.30;;;;;;;;;;5036945;28;20272;-71
2023/10/27 03:10:15;;;;;;;50.67;22.50;;;;;;;;;;5054772;28;20251;-72
2023/10/27 03:12:40;;;;;;;50.38;21.15;;;;;;;;;;5036496;28;20292;-72
2023/10/27 03:15:06;;;;;;;53.92;21.67;;;;;;;;;;5036570;28;20025;-71
2023/10/27 03:17:31;;;;;;;45.60;21.55;;;;;;;;;;5054493;28;20024;-72
2023/10/27 03:19:57;;;;;;;44.60;21.15;;;;;;;;;;5054654;28;20045;-72
2023/10/27 03:22:22;;;;;;;45.45;21.38;;;;;;;;;;5054604;28;20111;-72
2023/10/27 03:24:48;;;;;;;45.60;19.92;;;;;;;;;;5036375;28;20476;-71
2023/10/27 03:27:13;;;;;;;52.27;21.63;;;;;;;;;;5054446;28;20369;-71
2023/10/27 03:29:38;;;;;;;44.27;21.30;;;;;;;;;;5054264;28;20306;-71
2023/10/27 03:32:08;;;;;;;44.37;20.30;;;;;;;;;;5054267;28;20670;-71
2023/10/27 03:34:33;;;;;;;47.10;21.55;;;;;;;;;;5054178;28;20275;-71
2023/10/27 03:36:58;;;;;;;43.23;20.40;;;;;;;;;;5036298;28;20016;-71
2023/10/27 03:39:23;;;;;;;42.97;19.97;;;;;;;;;;5054227;28;20346;-71
2023/10/27 03:41:48;;;;;;;45.00;19.23;;;;;;;;;;5053856;28;20287;-71
2023/10/27 03:44:14;;;;;;;46.38;20.30;;;;;;;;;;5054284;28;20297;-71
2023/10/27 03:46:39;;;;;;;44.95;19.80;;;;;;;;;;5053931;28;20067;-71
2023/10/27 03:49:04;;;;;;;43.17;19.70;;;;;;;;;;5053926;28;20039;-71
2023/10/27 03:51:31;;;;;;;44.07;20.50;;;;;;;;;;5053974;28;20346;-71
2023/10/27 03:53:56;;;;;;;40.67;20.13;;;;;;;;;;5054005;28;20017;-71
2023/10/27 03:56:21;;;;;;;44.23;19.63;;;;;;;;;;5053805;28;20580;-71
2023/10/27 03:58:46;;;;;;;41.08;19.38;;;;;;;;;;5053299;28;20263;-71
2023/10/27 04:01:12;;;;;;;41.13;18.40;;;;;;;;;;5053570;28;20021;-71
2023/10/27 04:03:37;;;;;;;38.10;18.63;;;;;;;;;;5053571;28;20267;-71
2023/10/27 04:06:03;;;;;;;39.50;18.10;;;;;;;;;;5053723;28;20411;-71
2023/10/27 04:08:29;;;;;;;42.30;18.10;;;;;;;;;;5053631;28;20334;-71
2023/10/27 04:10:54;;;;;;;35.38;16.65;;;;;;;;;;5053450;28;20463;-71
2023/10/27 04:13:19;;;;;;;41.23;17.87;;;;;;;;;;5053386;28;20076;-72
2023/10/27 04:15:44;;;;;;;33.10;16.67;;;;;;;;;;5035498;28;20282;-70
2023/10/27 04:18:10;;;;;;;37.95;16.00;;;;;;;;;;5053483;28;20032;-70
2023/10/27 04:20:35;;;;;;;33.45;15.15;;;;;;;;;;5053433;28;20024;-72
2023/10/27 04:23:00;;;;;;;29.38;14.82;;;;;;;;;;5053412;28;20025;-71
2023/10/27 04:25:25;;;;;;;29.83;14.00;;;;;;;;;;5053444;28;20024;-72
2023/10/27 04:27:51;;;;;;;27.27;13.98;;;;;;;;;;5053316;28;20754;-71
2023/10/27 04:30:16;;;;;;;26.48;12.57;;;;;;;;;;5035472;28;20021;-72
2023/10/27 04:32:41;;;;;;;27.63;14.07;;;;;;;;;;5053432;28;20021;-72
2023/10/27 04:35:07;;;;;;;29.48;13.98;;;;;;;;;;5053129;28;20693;-71
2023/10/27 04:37:32;;;;;;;27.83;13.57;;;;;;;;;;5053387;28;20111;-71
2023/10/27 04:39:58;;;;;;;33.63;15.00;;;;;;;;;;5035057;28;20172;-71
2023/10/27 04:42:23;;;;;;;29.15;13.93;;;;;;;;;;5053211;28;20613;-71
2023/10/27 04:44:48;;;;;;;31.38;14.43;;;;;;;;;;5053151;28;20028;-71
2023/10/27 04:47:14;;;;;;;30.20;14.68;;;;;;;;;;5053281;28;20032;-71
2023/10/27 04:49:39;;;;;;;31.35;14.15;;;;;;;;;;5052997;28;20076;-71
2023/10/27 04:52:05;;;;;;;30.30;13.60;;;;;;;;;;5053123;28;20022;-71
2023/10/27 04:54:31;;;;;;;30.40;14.65;;;;;;;;;;5035030;28;20354;-71
2023/10/27 04:56:56;;;;;;;31.83;14.45;;;;;;;;;;5053006;28;20024;-71
2023/10/27 04:59:21;;;;;;;31.87;13.67;;;;;;;;;;5052934;28;20022;-71
2023/10/27 05:01:46;;;;;;;32.93;14.33;;;;;;;;;;5052956;28;20299;-71
2023/10/27 05:04:11;;;;;;;31.73;14.30;;;;;;;;;;5053003;28;20614;-71
2023/10/27 05:06:36;;;;;;;30.92;13.80;;;;;;;;;;5035007;28;20255;-71
2023/10/27 05:09:02;;;;;;;32.57;14.23;;;;;;;;;;5052852;28;20092;-71
2023/10/27 05:11:27;;;;;;;31.33;14.13;;;;;;;;;;5054917;28;20267;-71
2023/10/27 05:13:52;;;;;;;31.37;14.33;;;;;;;;;;5056491;28;20049;-71
2023/10/27 05:16:17;;;;;;;30.90;14.13;;;;;;;;;;5056746;28;20025;-71
2023/10/27 05:18:42;;;;;;;31.05;14.02;;;;;;;;;;5056739;28;20013;-71
2023/10/27 05:21:13;;;;;;;30.00;13.40;;;;;;;;;;5056604;28;20087;-71
2023/10/27 05:23:39;;;;;;;33.03;13.50;;;;;;;;;;5056610;28;20021;-72
2023/10/27 05:26:04;;;;;;;33.23;13.63;;;;;;;;;;5056649;28;20017;-72
2023/10/27 05:28:29;;;;;;;33.15;13.60;;;;;;;;;;5056819;28;20283;-72
2023/10/27 05:30:55;;;;;;;31.27;12.97;;;;;;;;;;5056466;28;20024;-72
2023/10/27 05:33:20;;;;;;;28.50;13.02;;;;;;;;;;5056566;28;20362;-72
2023/10/27 05:35:45;;;;;;;28.60;12.83;;;;;;;;;;5056415;28;20070;-73
2023/10/27 05:38:10;;;;;;;26.83;12.33;;;;;;;;;;5056335;28;20036;-72
2023/10/27 05:40:35;;;;;;;26.53;11.83;;;;;;;;;;5038432;28;20260;-72
2023/10/27 05:43:01;;;;;;;26.23;12.20;;;;;;;;;;5038365;28;20269;-72
2023/10/27 05:45:26;;;;;;;26.83;12.77;;;;;;;;;;5056329;28;20267;-72
2023/10/27 05:47:51;;;;;;;26.90;12.03;;;;;;;;;;5056079;28;20745;-72
2023/10/27 05:50:16;;;;;;;26.93;12.03;;;;;;;;;;5056304;28;20255;-72
2023/10/27 05:52:41;;;;;;;26.70;12.27;;;;;;;;;;5056071;28;20661;-71
2023/10/27 05:55:07;;;;;;;28.43;12.10;;;;;;;;;;5056056;28;20021;-72
2023/10/27 05:57:33;;;;;;;28.63;12.50;;;;;;;;;;5055824;28;20267;-72
2023/10/27 05:59:58;;;;;;;25.83;11.48;;;;;;;;;;5055950;28;20088;-72
2023/10/27 06:02:23;;;;;;;26.57;11.43;;;;;;;;;;5056060;28;20430;-71
2023/10/27 06:04:48;;;;;;;25.02;11.45;;;;;;;;;;5055994;28;20267;-72
2023/10/27 06:07:15;;;;;;;25.15;11.38;;;;;;;;;;5055751;28;20029;-72
2023/10/27 06:09:41;;;;;;;24.35;11.40;;;;;;;;;;5055585;28;20044;-72
2023/10/27 06:12:06;;;;;;;25.08;11.60;;;;;;;;;;5055782;28;20025;-72
2023/10/27 06:14:32;;;;;;;28.15;11.52;;;;;;;;;;5037660;28;20021;-72
2023/10/27 06:16:57;;;;;;;25.77;11.73;;;;;;;;;;5055544;28;20013;-72
2023/10/27 06:19:24;;;;;;;22.17;10.63;;;;;;;;;;5055720;28;20298;-71
2023/10/27 06:21:49;;;;;;;24.23;10.80;;;;;;;;;;5055228;28;20663;-72
2023/10/27 06:24:14;;;;;;;23.13;10.90;;;;;;;;;;5055508;28;20052;-72
2023/10/27 06:26:39;;;;;;;23.20;10.90;;;;;;;;;;5055786;28;20021;-72
2023/10/27 06:29:05;;;;;;;25.23;11.37;;;;;;;;;;5055468;28;20020;-72
2023/10/27 06:31:30;;;;;;;23.17;11.30;;;;;;;;;;5037425;28;20271;-71
2023/10/27 06:33:56;;;;;;;25.13;11.40;;;;;;;;;;5037715;28;20279;-71
2023/10/27 06:36:21;;;;;;;23.00;10.43;;;;;;;;;;5055551;28;20270;-72
2023/10/27 06:38:46;;;;;;;28.35;11.23;;;;;;;;;;5055366;28;20013;-71
2023/10/27 06:41:11;;;;;;;24.20;10.80;;;;;;;;;;5055349;28;20028;-71
2023/10/27 06:43:36;;;;;;;21.98;10.55;;;;;;;;;;5055277;28;20083;-71
2023/10/27 06:46:02;;;;;;;21.40;10.07;;;;;;;;;;5055164;28;20088;-71
2023/10/27 06:48:27;;;;;;;21.77;10.32;;;;;;;;;;5055182;28;20075;-72
2023/10/27 06:50:52;;;;;;;18.83;9.97;;;;;;;;;;5054943;28;20468;-72
2023/10/27 06:53:17;;;;;;;23.42;10.57;;;;;;;;;;5037614;28;20375;-72
2023/10/27 06:55:42;;;;;;;21.67;10.23;;;;;;;;;;5060922;28;20021;-73
2023/10/27 06:58:08;;;;;;;21.05;10.02;;;;;;;;;;5057263;28;20678;-73
2023/10/27 07:00:33;;;;;;;23.20;10.38;;;;;;;;;;5038990;28;20013;-73
2023/10/27 07:02:59;;;;;;;24.43;10.77;;;;;;;;;;5056615;28;20021;-72
2023/10/27 07:05:24;;;;;;;23.15;10.60;;;;;;;;;;5054939;28;20024;-72
2023/10/27 07:07:49;;;;;;;21.67;10.55;;;;;;;;;;5055193;28;20024;-72
2023/10/27 07:10:16;;;;;;;19.90;9.50;;;;;;;;;;5054967;28;20043;-72
2023/10/27 07:12:41;;;;;;;18.83;9.23;;;;;;;;;;5054483;28;20051;-72
2023/10/27 07:15:06;;;;;;;17.35;9.00;;;;;;;;;;5036497;28;20379;-72
2023/10/27 07:17:31;;;;;;;19.35;9.57;;;;;;;;;;5055785;28;20104;-71
2023/10/27 07:19:56;;;;;;;15.90;8.07;;;;;;;;;;5056625;28;20491;-72
2023/10/27 07:22:22;;;;;;;15.43;8.10;;;;;;;;;;5058112;28;20029;-72
2023/10/27 07:24:47;;;;;;;15.07;7.88;;;;;;;;;;5056476;28;20017;-72
2023/10/27 07:27:12;;;;;;;15.02;7.80;;;;;;;;;;5059271;28;20025;-72
2023/10/27 07:29:37;;;;;;;13.65;6.97;;;;;;;;;;5056522;28;20357;-72
2023/10/27 07:32:03;;;;;;;10.95;6.22;;;;;;;;;;5054588;28;20090;-72
2023/10/27 07:34:28;;;;;;;12.63;6.68;;;;;;;;;;5053513;28;20507;-72
2023/10/27 07:36:54;;;;;;;13.15;6.97;;;;;;;;;;5054167;28;20013;-71
2023/10/27 07:39:19;;;;;;;13.40;7.25;;;;;;;;;;5054062;28;20119;-72
2023/10/27 07:41:44;;;;;;;11.07;6.50;;;;;;;;;;5054181;28;20041;-71
2023/10/27 07:44:09;;;;;;;13.68;6.93;;;;;;;;;;5056250;28;20153;-72
2023/10/27 07:46:35;;;;;;;11.20;6.50;;;;;;;;;;5054233;28;20017;-71
2023/10/27 07:49:00;;;;;;;11.77;6.68;;;;;;;;;;5054047;28;20400;-71
2023/10/27 07:51:25;;;;;;;10.63;6.20;;;;;;;;;;5055986;28;20539;-71
2023/10/27 07:53:50;;;;;;;11.27;6.43;;;;;;;;;;5054177;28;20017;-71
2023/10/27 07:56:17;;;;;;;10.23;5.97;;;;;;;;;;5053785;28;20291;-72
2023/10/27 07:58:43;;;;;;;11.00;6.22;;;;;;;;;;5054278;28;20436;-71
2023/10/27 08:01:08;;;;;;;9.97;5.77;;;;;;;;;;5053674;28;20017;-72
2023/10/27 08:03:38;;;;;;;10.03;5.63;;;;;;;;;;5053808;28;20263;-72
2023/10/27 08:06:07;;;;;;;9.30;5.65;;;;;;;;;;5053989;28;20259;-72
2023/10/27 08:08:32;;;;;;;10.52;6.10;;;;;;;;;;5053587;28;20059;-70
2023/10/27 08:10:58;;;;;;;9.82;6.05;;;;;;;;;;5053786;28;20069;-72
2023/10/27 08:13:23;;;;;;;9.73;5.53;;;;;;;;;;5053528;28;20041;-71
2023/10/27 08:15:49;;;;;;;10.32;5.47;;;;;;;;;;5053522;28;20515;-71
2023/10/27 08:18:15;;;;;;;8.43;4.95;;;;;;;;;;5053528;28;20029;-71
2023/10/27 08:20:40;;;;;;;7.47;4.50;;;;;;;;;;5053525;28;20058;-71
2023/10/27 08:23:05;;;;;;;8.35;4.85;;;;;;;;;;5053639;28;20259;-71
2023/10/27 08:25:30;;;;;;;7.87;4.90;;;;;;;;;;5053654;28;20017;-72
2023/10/27 08:27:55;;;;;;;11.47;4.80;;;;;;;;;;5053743;28;20020;-72
2023/10/27 08:30:21;;;;;;;6.68;4.05;;;;;;;;;;5053703;28;20488;-72
2023/10/27 08:32:46;;;;;;;7.63;4.30;;;;;;;;;;5053793;28;20019;-73
2023/10/27 08:35:11;;;;;;;7.03;4.03;;;;;;;;;;5056725;28;20380;-72
2023/10/27 08:37:36;;;;;;;7.83;4.20;;;;;;;;;;5040491;28;20507;-72
2023/10/27 08:40:03;;;;;;;6.27;3.90;;;;;;;;;;5058428;28;20255;-71
2023/10/27 08:42:29;;;;;;;6.43;3.92;;;;;;;;;;5055382;28;20013;-72
2023/10/27 08:44:55;;;;;;;11.93;4.47;;;;;;;;;;5036996;28;20017;-72
2023/10/27 08:47:20;;;;;;;5.63;3.58;;;;;;;;;;5055680;28;20384;-72
2023/10/27 08:49:46;;;;;;;5.43;3.50;;;;;;;;;;5054260;28;20017;-72
2023/10/27 08:52:11;;;;;;;5.63;3.47;;;;;;;;;;5053849;28;20578;-72
2023/10/27 08:54:42;;;;;;;4.88;3.30;;;;;;;;;;5053460;28;20109;-72
2023/10/27 08:57:08;;;;;;;5.57;3.40;;;;;;;;;;5055621;28;20017;-72
2023/10/27 08:59:35;;;;;;;5.40;3.08;;;;;;;;;;5054306;28;20020;-71
2023/10/27 09:02:01;;;;;;;4.95;3.30;;;;;;;;;;5053468;28;20020;-72
2023/10/27 09:04:26;;;;;;;6.53;3.40;;;;;;;;;;5053599;28;20379;-72
2023/10/27 09:06:51;;;;;;;5.70;3.55;;;;;;;;;;5057632;28;20021;-73
2023/10/27 09:09:16;;;;;;;5.33;3.73;;;;;;;;;;5053151;28;20108;-72
2023/10/27 09:11:43;;;;;;;5.97;3.80;;;;;;;;;;5053926;28;20264;-71
2023/10/27 09:14:18;;;;;;;6.82;3.83;;;;;;;;;;5039944;28;20303;-71
2023/10/27 09:16:43;;;;;;;8.30;3.97;;;;;;;;;;5055005;28;20083;-71
2023/10/27 09:19:24;;;;;;;7.60;4.18;;;;;;;;;;5054030;28;20396;-72
2023/10/27 09:21:49;;;;;;;6.63;4.40;;;;;;;;;;5057986;28;20389;-72
2023/10/27 09:24:24;;;;;;;7.43;4.50;;;;;;;;;;5054076;28;20032;-72
2023/10/27 09:26:50;;;;;;;19.20;5.88;;;;;;;;;;5053309;28;20028;-73
2023/10/27 09:29:16;;;;;;;5.57;3.67;;;;;;;;;;5035873;28;20021;-72
2023/10/27 09:31:42;;;;;;;8.63;4.05;;;;;;;;;;5053489;28;20020;-71
2023/10/27 09:34:26;;;;;;;5.30;3.80;;;;;;;;;;5053168;28;20033;-72
2023/10/27 09:36:55;;;;;;;4.97;3.53;;;;;;;;;;5053244;28;20021;-71
2023/10/27 09:39:23;;;;;;;4.93;3.53;;;;;;;;;;5053317;28;20020;-73
2023/10/27 09:42:04;;;;;;;6.00;3.70;;;;;;;;;;5052625;28;20016;-72
2023/10/27 09:44:48;;;;;;;7.70;3.80;;;;;;;;;;5052841;28;20021;-72
2023/10/27 09:47:17;;;;;;;5.55;3.80;;;;;;;;;;5052716;28;20073;-73
2023/10/27 09:49:46;;;;;;;5.38;3.38;;;;;;;;;;5052901;28;20083;-72
2023/10/27 09:52:14;;;;;;;6.88;3.78;;;;;;;;;;5052671;28;20020;-72
2023/10/27 09:54:39;;;;;;;6.47;3.45;;;;;;;;;;5052665;28;20032;-71
2023/10/27 09:57:05;;;;;;;5.20;3.22;;;;;;;;;;5054521;28;20017;-73
2023/10/27 09:59:30;;;;;;;5.88;3.63;;;;;;;;;;5060214;28;20163;-72
2023/10/27 10:01:57;;;;;;;4.82;3.38;;;;;;;;;;5061155;28;20024;-73
2023/10/27 10:04:41;;;;;;;4.93;3.50;;;;;;;;;;5060754;28;20021;-74
2023/10/27 10:07:10;;;;;;;5.20;3.22;;;;;;;;;;5058723;28;20468;-74
2023/10/27 10:09:42;;;;;;;4.28;2.83;;;;;;;;;;5060640;28;20059;-73
2023/10/27 10:12:08;;;;;;;4.20;2.90;;;;;;;;;;5040250;28;20388;-71
2023/10/27 10:14:36;;;;;;;3.92;2.70;;;;;;;;;;5056459;28;20021;-75
2023/10/27 10:17:02;;;;;;;5.72;3.10;;;;;;;;;;5056279;28;20104;-71
2023/10/27 10:19:46;;;;;;;4.68;3.20;;;;;;;;;;5056143;28;20049;-73
2023/10/27 10:22:31;;;;;;;4.78;2.88;;;;;;;;;;5056118;28;20021;-72
2023/10/27 10:25:14;;;;;;;5.15;2.80;;;;;;;;;;5055796;28;20021;-73
2023/10/27 10:28:18;;;;;;;4.68;2.80;;;;;;;;;;5056275;28;20468;-72
2023/10/27 10:30:44;;;;;;;5.47;2.90;;;;;;;;;;4974966;28;20026;-73
2023/10/27 10:33:23;;;;;;;3.60;2.70;;;;;;;;;;4958637;28;20042;-72
2023/10/27 10:35:49;;;;;;;4.13;2.45;;;;;;;;;;5020064;28;20523;-73
2023/10/27 10:38:21;;;;;;;5.47;2.53;;;;;;;;;;5055662;28;20427;-73
2023/10/27 10:40:56;;;;;;;3.65;2.22;;;;;;;;;;5056090;28;20021;-72
2023/10/27 10:43:23;;;;;;;3.40;2.20;;;;;;;;;;5055737;28;20041;-71
2023/10/27 10:45:58;;;;;;;2.70;1.85;;;;;;;;;;5055781;28;20029;-71
2023/10/27 10:48:24;;;;;;;4.13;2.20;;;;;;;;;;5055445;28;20104;-71
2023/10/27 10:50:51;;;;;;;2.72;2.00;;;;;;;;;;5055427;28;20020;-72
2023/10/27 10:53:17;;;;;;;3.10;2.00;;;;;;;;;;5055253;28;20112;-72
2023/10/27 10:55:44;;;;;;;3.40;2.40;;;;;;;;;;5056052;28;20051;-72
2023/10/27 10:58:09;;;;;;;3.55;2.30;;;;;;;;;;5057178;28;20047;-71
2023/10/27 11:00:35;;;;;;;5.70;2.08;;;;;;;;;;5055120;28;20472;-72
2023/10/27 11:03:08;;;;;;;4.28;2.80;;;;;;;;;;5037492;28;20017;-72
2023/10/27 11:05:33;;;;;;;5.85;3.10;;;;;;;;;;5055420;28;20025;-72
2023/10/27 11:07:59;;;;;;;4.18;2.97;;;;;;;;;;5054803;28;20016;-70
2023/10/27 11:10:24;;;;;;;4.60;2.60;;;;;;;;;;5054298;28;20021;-71
2023/10/27 11:12:49;;;;;;;3.55;2.70;;;;;;;;;;5055103;28;20049;-71
2023/10/27 11:15:33;;;;;;;5.43;2.87;;;;;;;;;;5054784;28;20059;-71
2023/10/27 11:18:07;;;;;;;4.10;2.88;;;;;;;;;;5055154;28;20268;-70
2023/10/27 11:20:36;;;;;;;5.63;2.92;;;;;;;;;;5055138;28;20017;-70
2023/10/27 11:23:07;;;;;;;4.20;2.88;;;;;;;;;;5055823;28;20533;-72
2023/10/27 11:25:33;;;;;;;4.25;2.85;;;;;;;;;;5054980;28;20506;-71
2023/10/27 11:28:16;;;;;;;3.50;2.63;;;;;;;;;;5055360;28;20018;-71
2023/10/27 11:30:41;;;;;;;6.63;3.17;;;;;;;;;;5055432;28;20019;-71
2023/10/27 11:33:08;;;;;;;5.05;3.00;;;;;;;;;;5054761;28;20096;-72
2023/10/27 11:35:33;;;;;;;4.80;2.92;;;;;;;;;;5055083;28;20024;-71
2023/10/27 11:38:02;;;;;;;5.43;2.97;;;;;;;;;;5054844;28;20409;-71
2023/10/27 11:40:27;;;;;;;4.80;2.80;;;;;;;;;;5054443;28;20091;-71
2023/10/27 11:42:52;;;;;;;4.20;2.50;;;;;;;;;;5036928;28;20013;-71
2023/10/27 11:45:17;;;;;;;4.10;2.90;;;;;;;;;;5054440;28;20259;-71
2023/10/27 11:47:42;;;;;;;3.70;2.67;;;;;;;;;;5056934;28;20036;-71
2023/10/27 11:50:09;;;;;;;3.67;2.70;;;;;;;;;;5037333;28;20291;-71
2023/10/27 11:52:34;;;;;;;4.78;3.10;;;;;;;;;;5055493;28;20267;-71
2023/10/27 11:55:00;;;;;;;4.07;2.83;;;;;;;;;;5054512;28;20452;-72
2023/10/27 11:57:25;;;;;;;4.97;2.88;;;;;;;;;;5054449;28;20441;-72
2023/10/27 11:59:50;;;;;;;9.20;2.90;;;;;;;;;;5054352;28;20017;-71
2023/10/27 12:02:15;;;;;;;3.97;2.70;;;;;;;;;;5054413;28;20580;-71
2023/10/27 12:04:40;;;;;;;3.83;2.58;;;;;;;;;;5053892;28;20266;-71
2023/10/27 12:07:06;;;;;;;8.30;2.80;;;;;;;;;;5053862;28;20104;-71
2023/10/27 12:09:31;;;;;;;4.53;2.80;;;;;;;;;;5054212;28;20025;-72
2023/10/27 12:11:56;;;;;;;3.80;2.50;;;;;;;;;;5052975;28;20082;-71
2023/10/27 12:14:23;;;;;;;4.27;2.80;;;;;;;;;;5053433;28;20283;-72
2023/10/27 12:16:48;;;;;;;3.92;2.40;;;;;;;;;;5036043;28;20259;-71
2023/10/27 12:19:13;;;;;;;4.68;2.40;;;;;;;;;;5053885;28;20470;-71
2023/10/27 12:21:38;;;;;;;3.92;2.67;;;;;;;;;;5036403;28;20413;-72
2023/10/27 12:24:03;;;;;;;3.50;2.40;;;;;;;;;;5054053;28;20060;-71
2023/10/27 12:26:29;;;;;;;5.05;2.67;;;;;;;;;;5054323;28;20108;-71
2023/10/27 12:28:54;;;;;;;5.13;2.50;;;;;;;;;;5053702;28;20021;-71
2023/10/27 12:31:19;;;;;;;3.67;2.38;;;;;;;;;;5053848;28;20055;-72
2023/10/27 12:33:44;;;;;;;5.43;2.30;;;;;;;;;;5053947;28;20040;-72
2023/10/27 12:36:10;;;;;;;4.47;2.30;;;;;;;;;;5052959;28;20017;-72
2023/10/27 12:38:36;;;;;;;3.40;2.00;;;;;;;;;;5052646;28;20017;-71
2023/10/27 12:41:01;;;;;;;2.35;1.70;;;;;;;;;;5053596;28;20048;-72
2023/10/27 12:43:27;;;;;;;2.97;1.90;;;;;;;;;;5053717;28;20056;-72
2023/10/27 12:45:53;;;;;;;4.15;1.90;;;;;;;;;;5035859;28;20032;-71
2023/10/27 12:48:18;;;;;;;4.38;2.08;;;;;;;;;;5053637;28;20077;-72
2023/10/27 12:50:44;;;;;;;2.70;2.00;;;;;;;;;;5054060;28;20100;-71
2023/10/27 12:53:11;;;;;;;2.78;1.90;;;;;;;;;;5035796;28;20275;-71
2023/10/27 12:55:36;;;;;;;4.03;2.03;;;;;;;;;;5053861;28;20032;-71
2023/10/27 12:58:08;;;;;;;2.73;1.70;;;;;;;;;;5036608;28;20021;-72
2023/10/27 13:00:34;;;;;;;4.93;2.20;;;;;;;;;;5053576;28;20333;-72
2023/10/27 13:02:59;;;;;;;3.50;2.03;;;;;;;;;;5035743;28;20025;-72
2023/10/27 13:05:25;;;;;;;9.82;2.40;;;;;;;;;;5054427;28;20021;-71
2023/10/27 13:07:52;;;;;;;3.88;2.15;;;;;;;;;;5054938;28;20096;-69
2023/10/27 13:10:17;;;;;;;3.67;2.60;;;;;;;;;;5054258;28;20017;-71
2023/10/27 13:12:43;;;;;;;3.83;2.22;;;;;;;;;;5055286;28;20552;-70
2023/10/27 13:15:14;;;;;;;3.35;2.17;;;;;;;;;;5035518;28;20071;-70
2023/10/27 13:17:40;;;;;;;2.83;2.05;;;;;;;;;;5053526;28;20013;-70
2023/10/27 13:20:05;;;;;;;3.70;2.40;;;;;;;;;;5037358;28;20063;-71
2023/10/27 13:22:33;;;;;;;4.13;2.50;;;;;;;;;;5035692;28;20051;-71
2023/10/27 13:24:59;;;;;;;3.78;2.50;;;;;;;;;;5036070;28;20020;-71
2023/10/27 13:27:24;;;;;;;5.57;2.58;;;;;;;;;;5054122;28;20020;-71
2023/10/27 13:29:49;;;;;;;3.65;2.20;;;;;;;;;;5053746;28;20449;-71
2023/10/27 13:32:15;;;;;;;4.28;2.38;;;;;;;;;;5053972;28;20391;-71
2023/10/27 13:34:40;;;;;;;6.47;2.90;;;;;;;;;;5056469;28;20021;-72
2023/10/27 13:37:05;;;;;;;4.50;2.83;;;;;;;;;;5039001;28;20023;-71
2023/10/27 13:39:31;;;;;;;4.47;2.60;;;;;;;;;;5056985;28;20252;-72
2023/10/27 13:41:56;;;;;;;4.63;3.10;;;;;;;;;;5057071;28;20132;-72
2023/10/27 13:44:22;;;;;;;5.87;3.20;;;;;;;;;;5056937;28;20017;-71
2023/10/27 13:46:47;;;;;;;5.28;3.20;;;;;;;;;;5056916;28;20808;-71
2023/10/27 13:49:13;;;;;;;5.40;3.20;;;;;;;;;;5057034;28;20415;-71
2023/10/27 13:51:38;;;;;;;6.13;3.55;;;;;;;;;;5056679;28;20260;-72
2023/10/27 13:54:04;;;;;;;5.95;3.85;;;;;;;;;;5038741;28;20036;-72
2023/10/27 13:56:29;;;;;;;6.20;3.60;;;;;;;;;;5056625;28;20017;-71
2023/10/27 13:58:54;;;;;;;4.87;3.60;;;;;;;;;;5038039;28;20175;-71
2023/10/27 14:01:20;;;;;;;5.20;3.90;;;;;;;;;;5056679;28;20021;-71
2023/10/27 14:03:45;;;;;;;5.30;3.80;;;;;;;;;;5056688;28;20025;-71
2023/10/27 14:06:15;;;;;;;8.63;3.40;;;;;;;;;;5057006;28;20024;-71
2023/10/27 14:08:43;;;;;;;5.00;3.60;;;;;;;;;;5038996;28;20364;-71
2023/10/27 14:11:09;;;;;;;5.93;3.70;;;;;;;;;;5056470;28;20024;-71
2023/10/27 14:13:34;;;;;;;5.30;3.70;;;;;;;;;;5038308;28;20420;-71
2023/10/27 14:16:00;;;;;;;5.83;3.50;;;;;;;;;;5056633;28;20017;-70
2023/10/27 14:18:29;;;;;;;6.65;4.05;;;;;;;;;;5056373;28;20272;-71
2023/10/27 14:20:54;;;;;;;6.32;3.83;;;;;;;;;;5057187;28;20017;-71
2023/10/27 14:23:22;;;;;;;7.97;3.72;;;;;;;;;;5056017;28;20101;-71